createdAt,value
2022-07-25T00:00:09.403Z,2.40
2022-07-25T00:02:36.706Z,2.03
2022-07-25T00:05:04.029Z,1.60
2022-07-25T00:07:31.396Z,1.67
2022-07-25T00:09:58.749Z,1.98
2022-07-25T00:12:26.042Z,1.70
2022-07-25T00:14:53.388Z,2.08
2022-07-25T00:17:20.662Z,1.55
2022-07-25T00:19:47.922Z,3.55
2022-07-25T00:22:15.158Z,1.90
2022-07-25T00:24:42.489Z,1.67
2022-07-25T00:27:09.726Z,1.98
2022-07-25T00:29:37.206Z,2.03
2022-07-25T00:32:04.432Z,1.70
2022-07-25T00:34:31.764Z,2.00
2022-07-25T00:36:59.041Z,2.33
2022-07-25T00:39:26.405Z,2.35
2022-07-25T00:41:53.597Z,1.77
2022-07-25T00:44:20.894Z,2.97
2022-07-25T00:46:51.858Z,2.03
2022-07-25T00:49:19.345Z,2.53
2022-07-25T00:51:46.692Z,2.85
2022-07-25T00:54:13.942Z,2.45
2022-07-25T00:56:41.221Z,3.00
2022-07-25T00:59:08.460Z,2.30
2022-07-25T01:01:35.854Z,2.75
2022-07-25T01:04:03.931Z,2.83
2022-07-25T01:06:31.413Z,2.55
2022-07-25T01:08:58.689Z,2.83
2022-07-25T01:11:26.037Z,2.63
2022-07-25T01:13:53.325Z,3.28
2022-07-25T01:16:20.726Z,2.45
2022-07-25T01:18:48.012Z,2.70
2022-07-25T01:21:15.278Z,2.38
2022-07-25T01:23:42.537Z,2.63
2022-07-25T01:26:09.813Z,2.08
2022-07-25T01:28:37.123Z,2.05
2022-07-25T01:31:04.540Z,2.67
2022-07-25T01:33:31.879Z,2.40
2022-07-25T01:35:59.170Z,2.33
2022-07-25T01:38:26.431Z,2.83
2022-07-25T01:40:53.698Z,2.20
2022-07-25T01:43:20.989Z,2.72
2022-07-25T01:45:48.363Z,2.45
2022-07-25T01:48:15.699Z,2.30
2022-07-25T01:50:44.168Z,4.72
2022-07-25T01:53:12.080Z,2.40
2022-07-25T01:55:39.291Z,2.85
2022-07-25T01:58:07.439Z,2.47
2022-07-25T02:00:35.537Z,3.55
2022-07-25T02:03:21.553Z,2.85
2022-07-25T02:05:48.867Z,3.90
2022-07-25T02:08:16.085Z,2.95
2022-07-25T02:10:44.376Z,2.50
2022-07-25T02:13:11.740Z,2.60
2022-07-25T02:15:39.118Z,2.05
2022-07-25T02:18:06.329Z,2.70
2022-07-25T02:20:33.617Z,2.97
2022-07-25T02:23:00.850Z,2.25
2022-07-25T02:25:28.111Z,2.75
2022-07-25T02:27:55.460Z,2.35
2022-07-25T02:30:22.657Z,2.50
2022-07-25T02:32:49.899Z,2.67
2022-07-25T02:35:17.176Z,2.90
2022-07-25T02:37:44.437Z,2.58
2022-07-25T02:40:11.613Z,2.67
2022-07-25T02:42:38.878Z,3.05
2022-07-25T02:45:06.121Z,3.13
2022-07-25T02:47:33.508Z,3.38
2022-07-25T02:50:00.721Z,2.70
2022-07-25T02:52:27.989Z,1.90
2022-07-25T02:54:55.281Z,3.65
2022-07-25T02:57:22.558Z,2.65
2022-07-25T02:59:49.818Z,2.95
2022-07-25T03:02:17.164Z,2.60
2022-07-25T03:04:44.394Z,3.85
2022-07-25T03:07:11.688Z,2.70
2022-07-25T03:09:38.913Z,2.63
2022-07-25T03:12:06.212Z,3.60
2022-07-25T03:14:33.631Z,2.45
2022-07-25T03:17:00.976Z,3.75
2022-07-25T03:19:29.035Z,3.42
2022-07-25T03:21:56.391Z,2.72
2022-07-25T03:24:23.581Z,3.95
2022-07-25T03:26:50.887Z,2.90
2022-07-25T03:29:18.141Z,3.55
2022-07-25T03:31:45.438Z,3.65
2022-07-25T03:34:12.712Z,3.40
2022-07-25T03:36:40.027Z,2.90
2022-07-25T03:39:07.226Z,3.75
2022-07-25T03:41:34.526Z,3.08
2022-07-25T03:44:01.792Z,3.28
2022-07-25T03:46:29.141Z,3.05
2022-07-25T03:48:56.502Z,3.80
2022-07-25T03:51:23.754Z,4.13
2022-07-25T03:54:03.849Z,2.80
2022-07-25T03:56:31.579Z,3.42
2022-07-25T03:58:58.843Z,3.38
2022-07-25T04:01:27.077Z,2.83
2022-07-25T04:03:54.348Z,2.88
2022-07-25T04:06:21.670Z,2.60
2022-07-25T04:08:48.916Z,3.85
2022-07-25T04:11:16.187Z,4.50
2022-07-25T04:13:43.450Z,2.97
2022-07-25T04:16:16.351Z,3.17
2022-07-25T04:18:50.459Z,3.30
2022-07-25T04:21:17.707Z,3.20
2022-07-25T04:23:44.989Z,4.55
2022-07-25T04:26:12.233Z,4.70
2022-07-25T04:28:39.519Z,4.45
2022-07-25T04:31:06.740Z,3.97
2022-07-25T04:33:33.993Z,3.25
2022-07-25T04:36:01.227Z,3.60
2022-07-25T04:38:28.496Z,3.25
2022-07-25T04:40:55.736Z,4.30
2022-07-25T04:43:23.239Z,3.63
2022-07-25T04:45:50.549Z,4.53
2022-07-25T04:48:17.897Z,3.50
2022-07-25T04:50:45.305Z,4.00
2022-07-25T04:53:12.599Z,3.60
2022-07-25T04:55:40.803Z,3.45
2022-07-25T04:58:08.169Z,3.92
2022-07-25T05:00:35.489Z,2.92
2022-07-25T05:03:02.814Z,4.60
2022-07-25T05:05:30.059Z,3.45
2022-07-25T05:07:57.324Z,3.17
2022-07-25T05:10:24.649Z,3.97
2022-07-25T05:12:51.944Z,3.58
2022-07-25T05:15:19.221Z,3.72
2022-07-25T05:17:46.508Z,3.42
2022-07-25T05:20:13.843Z,3.20
2022-07-25T05:22:41.100Z,3.47
2022-07-25T05:25:08.461Z,2.95
2022-07-25T05:27:35.716Z,3.17
2022-07-25T05:30:03.031Z,3.42
2022-07-25T05:32:30.319Z,3.70
2022-07-25T05:34:57.601Z,3.25
2022-07-25T05:37:24.848Z,3.28
2022-07-25T05:39:52.362Z,3.33
2022-07-25T05:42:19.787Z,3.70
2022-07-25T05:44:47.010Z,3.10
2022-07-25T05:47:14.324Z,3.15
2022-07-25T05:49:41.594Z,3.17
2022-07-25T05:52:12.797Z,2.45
2022-07-25T05:54:42.937Z,3.55
2022-07-25T05:57:10.237Z,2.47
2022-07-25T05:59:37.489Z,3.67
2022-07-25T06:02:04.971Z,2.60
2022-07-25T06:04:32.285Z,2.83
2022-07-25T06:06:59.593Z,2.47
2022-07-25T06:09:26.962Z,2.65
2022-07-25T06:12:00.126Z,3.05
2022-07-25T06:14:28.703Z,2.70
2022-07-25T06:16:55.957Z,2.72
2022-07-25T06:19:23.272Z,2.72
2022-07-25T06:21:50.833Z,1.85
2022-07-25T06:24:18.170Z,2.08
2022-07-25T06:26:45.471Z,1.80
2022-07-25T06:29:12.805Z,1.90
2022-07-25T06:31:40.126Z,1.92
2022-07-25T06:34:07.867Z,1.92
2022-07-25T06:36:35.456Z,1.88
2022-07-25T06:39:03.352Z,2.28
2022-07-25T06:41:30.653Z,1.90
2022-07-25T06:43:57.999Z,1.48
2022-07-25T06:46:26.740Z,1.90
2022-07-25T06:48:54.121Z,1.95
2022-07-25T06:51:23.049Z,2.10
2022-07-25T06:53:50.333Z,2.30
2022-07-25T06:56:17.904Z,1.90
2022-07-25T06:58:45.299Z,2.00
2022-07-25T07:01:12.651Z,1.52
2022-07-25T07:03:40.457Z,1.65
2022-07-25T07:06:07.927Z,2.28
2022-07-25T07:08:35.154Z,2.22
2022-07-25T07:11:02.435Z,2.40
2022-07-25T07:13:29.739Z,2.25
2022-07-25T07:15:57.115Z,2.00
2022-07-25T07:18:24.384Z,2.60
2022-07-25T07:20:52.298Z,2.35
2022-07-25T07:23:19.603Z,2.17
2022-07-25T07:25:47.224Z,3.25
2022-07-25T07:28:14.794Z,2.70
2022-07-25T07:31:14.647Z,2.08
2022-07-25T07:33:29.358Z,1.75
2022-07-25T07:35:57.235Z,2.47
2022-07-25T07:38:24.644Z,1.85
2022-07-25T07:40:51.979Z,1.63
2022-07-25T07:43:19.267Z,1.70
2022-07-25T07:45:46.514Z,1.90
2022-07-25T07:48:13.821Z,1.80
2022-07-25T07:50:41.120Z,2.78
2022-07-25T07:53:08.554Z,1.73
2022-07-25T07:55:45.533Z,3.20
2022-07-25T07:58:12.976Z,1.15
2022-07-25T08:00:40.405Z,1.65
2022-07-25T08:03:08.909Z,1.63
2022-07-25T08:05:36.381Z,1.77
2022-07-25T08:08:04.751Z,1.60
2022-07-25T08:10:32.190Z,1.35
2022-07-25T08:12:59.534Z,1.55
2022-07-25T08:15:26.869Z,1.88
2022-07-25T08:17:54.215Z,0.82
2022-07-25T08:20:38.396Z,1.23
2022-07-25T08:23:06.194Z,1.15
2022-07-25T08:25:33.558Z,1.00
2022-07-25T08:28:03.792Z,0.93
2022-07-25T08:30:31.235Z,1.15
2022-07-25T08:32:59.734Z,1.20
2022-07-25T08:35:26.977Z,0.88
2022-07-25T08:37:54.407Z,1.15
2022-07-25T08:40:21.636Z,1.00
2022-07-25T08:42:48.909Z,0.98
2022-07-25T08:45:22.505Z,1.00
2022-07-25T08:47:50.160Z,0.90
2022-07-25T08:50:17.446Z,0.73
2022-07-25T08:52:45.579Z,1.10
2022-07-25T08:55:14.721Z,1.00
2022-07-25T08:57:44.183Z,1.00
2022-07-25T09:00:12.354Z,1.30
2022-07-25T09:02:39.655Z,1.38
2022-07-25T09:05:06.987Z,0.90
2022-07-25T09:07:34.269Z,1.17
2022-07-25T09:10:01.560Z,1.40
2022-07-25T09:12:28.850Z,1.20
2022-07-25T09:14:56.164Z,1.27
2022-07-25T09:17:23.849Z,1.42
2022-07-25T09:19:52.776Z,1.48
2022-07-25T09:22:20.118Z,1.13
2022-07-25T09:24:47.341Z,1.17
2022-07-25T09:27:15.092Z,1.73
2022-07-25T09:29:45.910Z,1.42
2022-07-25T09:32:13.200Z,1.02
2022-07-25T09:34:40.447Z,1.38
2022-07-25T09:37:08.151Z,1.02
2022-07-25T09:39:35.384Z,1.40
2022-07-25T09:42:03.122Z,0.93
2022-07-25T09:44:30.532Z,1.23
2022-07-25T09:47:00.970Z,1.20
2022-07-25T09:49:28.317Z,1.25
2022-07-25T09:51:55.613Z,1.67
2022-07-25T09:54:24.143Z,1.10
2022-07-25T09:56:51.393Z,1.17
2022-07-25T09:59:18.722Z,0.90
2022-07-25T10:01:46.123Z,1.05
2022-07-25T10:04:13.878Z,1.02
2022-07-25T10:06:41.290Z,1.65
2022-07-25T10:09:08.534Z,1.70
2022-07-25T10:11:35.768Z,0.75
2022-07-25T10:14:03.116Z,0.80
2022-07-25T10:16:30.439Z,1.00
2022-07-25T10:18:57.892Z,0.90
2022-07-25T10:21:27.206Z,1.30
2022-07-25T10:23:55.122Z,1.05
2022-07-25T10:26:22.522Z,1.15
2022-07-25T10:28:49.846Z,1.00
2022-07-25T10:31:17.230Z,0.85
2022-07-25T10:33:44.685Z,0.95
2022-07-25T10:36:11.905Z,0.70
2022-07-25T10:38:40.054Z,0.98
2022-07-25T10:41:09.151Z,0.75
2022-07-25T10:43:36.470Z,0.80
2022-07-25T10:46:03.747Z,0.88
2022-07-25T10:48:31.197Z,0.90
2022-07-25T10:50:58.698Z,0.80
2022-07-25T10:53:26.083Z,0.95
2022-07-25T10:56:05.359Z,0.68
2022-07-25T10:58:33.639Z,0.90
2022-07-25T11:01:01.008Z,0.70
2022-07-25T11:03:28.303Z,0.60
2022-07-25T11:05:56.145Z,0.60
2022-07-25T11:08:24.059Z,0.80
2022-07-25T11:10:52.319Z,0.60
2022-07-25T11:13:19.554Z,0.70
2022-07-25T11:15:46.959Z,0.70
2022-07-25T11:18:14.197Z,0.90
2022-07-25T11:20:41.488Z,0.70
2022-07-25T11:23:08.723Z,1.35
2022-07-25T11:25:36.072Z,1.02
2022-07-25T11:28:03.961Z,0.90
2022-07-25T11:30:31.352Z,1.60
2022-07-25T11:32:58.646Z,1.02
2022-07-25T11:35:26.057Z,0.73
2022-07-25T11:37:53.359Z,0.90
2022-07-25T11:40:20.647Z,0.77
2022-07-25T11:42:48.077Z,0.70
2022-07-25T11:45:15.378Z,1.00
2022-07-25T11:47:42.668Z,0.90
2022-07-25T11:50:14.794Z,0.90
2022-07-25T11:52:48.387Z,0.88
2022-07-25T11:55:15.688Z,0.88
2022-07-25T11:57:44.419Z,1.52
2022-07-25T12:00:12.346Z,1.08
2022-07-25T12:02:39.730Z,1.10
2022-07-25T12:05:07.296Z,0.70
2022-07-25T12:07:34.540Z,0.70
2022-07-25T12:10:01.834Z,0.80
2022-07-25T12:12:29.150Z,0.90
2022-07-25T12:14:56.977Z,0.90
2022-07-25T12:17:24.453Z,0.68
2022-07-25T12:19:51.663Z,0.73
2022-07-25T12:22:18.952Z,0.77
2022-07-25T12:24:46.510Z,0.77
2022-07-25T12:27:13.814Z,0.57
2022-07-25T12:29:41.114Z,0.55
2022-07-25T12:32:08.415Z,1.02
2022-07-25T12:34:35.686Z,1.13
2022-07-25T12:37:02.940Z,0.65
2022-07-25T12:39:30.243Z,0.80
2022-07-25T12:41:57.557Z,0.80
2022-07-25T12:44:24.844Z,0.80
2022-07-25T12:46:52.240Z,0.60
2022-07-25T12:49:19.546Z,0.65
2022-07-25T12:51:46.897Z,0.60
2022-07-25T12:54:21.661Z,2.25
2022-07-25T12:56:49.756Z,0.90
2022-07-25T12:59:17.015Z,1.23
2022-07-25T13:01:44.365Z,1.00
2022-07-25T13:04:11.582Z,0.70
2022-07-25T13:06:39.139Z,0.52
2022-07-25T13:09:06.721Z,0.60
2022-07-25T13:11:34.357Z,0.30
2022-07-25T13:14:01.848Z,0.40
2022-07-25T13:16:29.292Z,0.57
2022-07-25T13:18:56.546Z,0.68
2022-07-25T13:21:24.868Z,1.50
2022-07-25T13:23:52.420Z,0.50
2022-07-25T13:26:19.695Z,0.47
2022-07-25T13:28:46.966Z,0.43
2022-07-25T13:31:14.373Z,0.40
2022-07-25T13:33:41.728Z,0.50
2022-07-25T13:36:09.325Z,0.75
2022-07-25T13:38:38.816Z,0.40
2022-07-25T13:41:06.184Z,0.40
2022-07-25T13:43:33.556Z,0.50
2022-07-25T13:46:01.044Z,0.50
2022-07-25T13:48:30.842Z,0.60
2022-07-25T13:50:58.920Z,0.68
2022-07-25T13:53:29.939Z,0.30
2022-07-25T13:55:58.305Z,0.38
2022-07-25T13:58:25.584Z,0.85
2022-07-25T14:00:53.065Z,0.70
2022-07-25T14:03:20.882Z,0.70
2022-07-25T14:05:48.330Z,0.60
2022-07-25T14:08:15.585Z,0.88
2022-07-25T14:10:42.911Z,1.00
2022-07-25T14:13:10.204Z,0.73
2022-07-25T14:15:38.360Z,0.70
2022-07-25T14:18:05.642Z,0.63
2022-07-25T14:20:33.199Z,0.50
2022-07-25T14:23:00.415Z,0.50
2022-07-25T14:25:27.706Z,0.70
2022-07-25T14:27:54.941Z,0.60
2022-07-25T14:30:22.250Z,0.60
2022-07-25T14:32:49.468Z,0.90
2022-07-25T14:35:16.759Z,0.60
2022-07-25T14:37:43.985Z,0.70
2022-07-25T14:40:11.699Z,0.85
2022-07-25T14:42:40.246Z,0.90
2022-07-25T14:45:07.530Z,0.80
2022-07-25T14:47:35.276Z,0.80
2022-07-25T14:50:02.565Z,0.65
2022-07-25T14:52:29.825Z,0.75
2022-07-25T14:54:57.085Z,0.90
2022-07-25T14:57:24.314Z,0.65
2022-07-25T14:59:51.704Z,1.23
2022-07-25T15:02:19.535Z,0.80
2022-07-25T15:04:47.033Z,0.82
2022-07-25T15:07:14.465Z,0.60
2022-07-25T15:09:41.818Z,1.00
2022-07-25T15:12:12.180Z,1.27
2022-07-25T15:14:43.476Z,1.23
2022-07-25T15:17:10.828Z,0.50
2022-07-25T15:19:38.119Z,0.98
2022-07-25T15:22:07.804Z,0.80
2022-07-25T15:24:44.458Z,1.00
2022-07-25T15:27:22.574Z,1.08
2022-07-25T15:29:50.236Z,0.70
2022-07-25T15:32:17.908Z,0.70
2022-07-25T15:34:45.250Z,1.13
2022-07-25T15:37:12.670Z,1.05
2022-07-25T15:39:40.312Z,0.95
2022-07-25T15:42:07.786Z,1.13
2022-07-25T15:44:35.191Z,0.93
2022-07-25T15:47:02.528Z,0.90
2022-07-25T15:49:29.951Z,0.80
2022-07-25T15:51:57.194Z,1.00
2022-07-25T15:54:29.398Z,0.90
2022-07-25T15:57:00.023Z,1.00
2022-07-25T15:59:28.726Z,1.10
2022-07-25T16:01:56.134Z,1.13
2022-07-25T16:04:23.548Z,1.00
2022-07-25T16:06:51.191Z,0.90
2022-07-25T16:09:19.429Z,0.80
2022-07-25T16:11:51.646Z,1.05
2022-07-25T16:14:22.568Z,1.15
2022-07-25T16:17:01.280Z,0.75
2022-07-25T16:19:33.322Z,1.08
2022-07-25T16:22:00.664Z,1.00
2022-07-25T16:24:27.962Z,0.90
2022-07-25T16:26:55.340Z,1.10
2022-07-25T16:29:22.706Z,0.80
2022-07-25T16:31:50.512Z,0.73
2022-07-25T16:34:17.919Z,1.17
2022-07-25T16:36:45.276Z,1.23
2022-07-25T16:39:12.744Z,1.20
2022-07-25T16:41:40.129Z,1.00
2022-07-25T16:44:07.657Z,0.90
2022-07-25T16:46:35.014Z,1.30
2022-07-25T16:49:02.405Z,1.10
2022-07-25T16:51:32.041Z,1.15
2022-07-25T16:54:02.695Z,1.10
2022-07-25T16:56:29.988Z,0.82
2022-07-25T16:58:57.459Z,0.98
2022-07-25T17:01:26.807Z,0.82
2022-07-25T17:03:54.609Z,1.38
2022-07-25T17:06:21.937Z,0.90
2022-07-25T17:08:49.311Z,0.82
2022-07-25T17:11:16.681Z,0.90
2022-07-25T17:13:43.994Z,1.20
2022-07-25T17:16:11.405Z,1.00
2022-07-25T17:18:38.847Z,1.00
2022-07-25T17:21:06.117Z,0.88
2022-07-25T17:23:33.808Z,1.00
2022-07-25T17:26:01.583Z,1.00
2022-07-25T17:28:29.142Z,1.25
2022-07-25T17:30:56.457Z,1.35
2022-07-25T17:33:23.852Z,1.20
2022-07-25T17:35:52.338Z,0.82
2022-07-25T17:38:25.368Z,1.02
2022-07-25T17:40:53.305Z,0.98
2022-07-25T17:43:20.672Z,0.80
2022-07-25T17:45:48.031Z,1.10
2022-07-25T17:48:15.392Z,0.93
2022-07-25T17:50:42.686Z,0.82
2022-07-25T17:53:09.965Z,1.20
2022-07-25T17:55:39.145Z,1.30
2022-07-25T17:58:06.643Z,0.95
2022-07-25T18:00:34.010Z,1.10
2022-07-25T18:03:01.441Z,1.10
2022-07-25T18:05:28.786Z,1.20
2022-07-25T18:07:56.125Z,1.45
2022-07-25T18:10:23.479Z,1.10
2022-07-25T18:12:50.858Z,1.02
2022-07-25T18:15:18.091Z,1.77
2022-07-25T18:17:45.530Z,1.42
2022-07-25T18:20:12.910Z,1.58
2022-07-25T18:22:41.303Z,0.98
2022-07-25T18:25:09.334Z,1.08
2022-07-25T18:27:36.716Z,0.75
2022-07-25T18:30:05.986Z,0.82
2022-07-25T18:32:33.368Z,0.70
2022-07-25T18:35:00.684Z,0.75
2022-07-25T18:37:27.978Z,0.75
2022-07-25T18:39:55.305Z,1.25
2022-07-25T18:42:26.231Z,1.15
2022-07-25T18:44:56.971Z,1.05
2022-07-25T18:47:28.437Z,0.70
2022-07-25T18:49:59.704Z,0.98
2022-07-25T18:52:27.007Z,1.50
2022-07-25T18:54:54.258Z,0.88
2022-07-25T18:57:21.575Z,1.33
2022-07-25T18:59:48.819Z,1.02
2022-07-25T19:02:16.109Z,1.38
2022-07-25T19:04:43.456Z,1.23
2022-07-25T19:07:10.748Z,1.30
2022-07-25T19:09:38.050Z,0.90
2022-07-25T19:12:05.434Z,1.10
2022-07-25T19:14:32.724Z,0.80
2022-07-25T19:16:59.963Z,1.15
2022-07-25T19:19:27.337Z,1.15
2022-07-25T19:21:54.649Z,1.13
2022-07-25T19:24:22.060Z,1.20
2022-07-25T19:26:49.893Z,1.08
2022-07-25T19:29:17.183Z,0.98
2022-07-25T19:31:44.694Z,1.70
2022-07-25T19:34:12.267Z,1.10
2022-07-25T19:36:39.556Z,0.88
2022-07-25T19:39:06.916Z,0.85
2022-07-25T19:41:34.337Z,0.90
2022-07-25T19:44:01.609Z,0.82
2022-07-25T19:46:33.502Z,0.68
2022-07-25T19:49:00.989Z,0.50
2022-07-25T19:51:28.381Z,0.70
2022-07-25T19:53:55.711Z,0.90
2022-07-25T19:56:23.080Z,0.82
2022-07-25T19:58:50.339Z,0.85
2022-07-25T20:01:17.708Z,0.90
2022-07-25T20:03:45.221Z,1.00
2022-07-25T20:06:12.498Z,0.70
2022-07-25T20:08:40.226Z,0.80
2022-07-25T20:11:07.640Z,0.80
2022-07-25T20:13:34.924Z,0.80
2022-07-25T20:16:03.936Z,0.88
2022-07-25T20:18:31.422Z,1.40
2022-07-25T20:20:58.718Z,1.08
2022-07-25T20:23:26.013Z,0.73
2022-07-25T20:25:53.390Z,0.85
2022-07-25T20:28:20.681Z,1.10
2022-07-25T20:30:47.957Z,1.05
2022-07-25T20:33:15.351Z,0.73
2022-07-25T20:35:42.659Z,0.57
2022-07-25T20:38:10.445Z,1.10
2022-07-25T20:40:38.873Z,1.20
2022-07-25T20:43:06.274Z,1.20
2022-07-25T20:45:33.585Z,0.80
2022-07-25T20:48:00.912Z,0.88
2022-07-25T20:50:28.249Z,0.90
2022-07-25T20:52:55.491Z,0.60
2022-07-25T20:55:22.822Z,0.90
2022-07-25T20:57:50.889Z,1.05
2022-07-25T21:00:18.331Z,0.90
2022-07-25T21:02:45.693Z,1.80
2022-07-25T21:05:13.005Z,0.60
2022-07-25T21:07:40.382Z,0.68
2022-07-25T21:10:07.826Z,0.90
2022-07-25T21:12:35.097Z,0.88
2022-07-25T21:15:02.374Z,0.93
2022-07-25T21:17:29.650Z,0.73
2022-07-25T21:19:56.998Z,1.42
2022-07-25T21:22:24.547Z,0.77
2022-07-25T21:24:53.824Z,2.75
2022-07-25T21:27:21.514Z,0.70
2022-07-25T21:29:49.023Z,0.75
2022-07-25T21:32:17.427Z,0.93
2022-07-25T21:34:45.723Z,0.80
2022-07-25T21:37:13.377Z,1.00
2022-07-25T21:39:40.870Z,0.60
2022-07-25T21:42:11.855Z,0.60
2022-07-25T21:44:39.217Z,0.63
2022-07-25T21:47:06.475Z,1.00
2022-07-25T21:49:52.447Z,0.70
2022-07-25T21:52:19.909Z,0.80
2022-07-25T21:54:57.693Z,0.60
2022-07-25T21:57:25.048Z,0.98
2022-07-25T21:59:52.289Z,0.70
2022-07-25T22:02:19.853Z,0.60
2022-07-25T22:04:47.137Z,0.80
2022-07-25T22:07:14.562Z,0.77
2022-07-25T22:09:41.781Z,0.75
2022-07-25T22:12:09.103Z,0.60
2022-07-25T22:14:37.668Z,0.63
2022-07-25T22:17:05.705Z,0.50
2022-07-25T22:19:33.075Z,1.30
2022-07-25T22:22:00.353Z,0.50
2022-07-25T22:24:27.601Z,0.88
2022-07-25T22:26:54.926Z,0.40
2022-07-25T22:29:22.781Z,0.70
2022-07-25T22:31:50.202Z,0.95
2022-07-25T22:34:17.538Z,0.82
2022-07-25T22:36:45.085Z,0.52
2022-07-25T22:39:12.703Z,0.70
2022-07-25T22:41:40.147Z,0.65
2022-07-25T22:44:07.444Z,0.68
2022-07-25T22:46:34.767Z,0.90
2022-07-25T22:49:02.193Z,0.90
2022-07-25T22:51:29.666Z,0.82
2022-07-25T22:53:57.211Z,0.52
2022-07-25T22:56:24.552Z,0.70
2022-07-25T22:58:52.079Z,1.15
2022-07-25T23:01:19.677Z,0.60
2022-07-25T23:03:47.197Z,0.57
2022-07-25T23:06:14.552Z,1.17
2022-07-25T23:08:43.107Z,0.70
2022-07-25T23:11:10.364Z,0.80
2022-07-25T23:13:37.694Z,0.60
2022-07-25T23:16:05.268Z,0.82
2022-07-25T23:18:37.577Z,1.17
2022-07-25T23:21:04.879Z,0.82
2022-07-25T23:23:32.200Z,0.73
2022-07-25T23:25:59.524Z,1.70
2022-07-25T23:28:26.800Z,1.02
2022-07-25T23:30:54.151Z,0.90
2022-07-25T23:33:25.652Z,0.88
2022-07-25T23:35:53.399Z,0.90
2022-07-25T23:38:20.746Z,0.75
2022-07-25T23:40:48.021Z,0.60
2022-07-25T23:43:17.637Z,0.98
2022-07-25T23:46:02.763Z,1.10
2022-07-25T23:48:30.354Z,0.80
2022-07-25T23:50:57.693Z,0.60
2022-07-25T23:53:25.019Z,0.95
2022-07-25T23:55:52.297Z,1.08
2022-07-25T23:58:19.588Z,0.90
